sensor_id;sensor_type;location;lat;lon;timestamp;temperature;humidity
8420;DHT22;4247;48.550;8.822;2022-12-18T00:02:25;-9.80;99.90
8420;DHT22;4247;48.550;8.822;2022-12-18T00:04:52;-9.90;99.90
8420;DHT22;4247;48.550;8.822;2022-12-18T00:07:19;-10.00;99.90
8420;DHT22;4247;48.550;8.822;2022-12-18T00:09:45;-10.10;99.90
8420;DHT22;4247;48.550;8.822;2022-12-18T00:12:12;-10.00;99.90
8420;DHT22;4247;48.550;8.822;2022-12-18T00:14:40;-10.00;99.90
8420;DHT22;4247;48.550;8.822;2022-12-18T00:17:10;-10.00;99.90
8420;DHT22;4247;48.550;8.822;2022-12-18T00:19:40;-10.10;99.90
8420;DHT22;4247;48.550;8.822;2022-12-18T00:22:07;-10.10;99.90
8420;DHT22;4247;48.550;8.822;2022-12-18T00:24:34;-10.10;99.90
8420;DHT22;4247;48.550;8.822;2022-12-18T00:27:00;-10.20;99.90
8420;DHT22;4247;48.550;8.822;2022-12-18T00:29:27;-10.30;99.90
8420;DHT22;4247;48.550;8.822;2022-12-18T00:31:56;-10.20;99.90
8420;DHT22;4247;48.550;8.822;2022-12-18T00:34:22;-10.20;99.90
8420;DHT22;4247;48.550;8.822;2022-12-18T00:36:49;-10.20;99.90
8420;DHT22;4247;48.550;8.822;2022-12-18T00:39:16;-10.20;99.90
8420;DHT22;4247;48.550;8.822;2022-12-18T00:41:43;-10.20;99.90
8420;DHT22;4247;48.550;8.822;2022-12-18T00:44:28;-10.30;99.90
8420;DHT22;4247;48.550;8.822;2022-12-18T00:46:56;-10.30;99.90
8420;DHT22;4247;48.550;8.822;2022-12-18T00:49:23;-10.20;99.90
8420;DHT22;4247;48.550;8.822;2022-12-18T00:51:49;-10.30;99.90
8420;DHT22;4247;48.550;8.822;2022-12-18T00:54:17;-10.30;99.90
8420;DHT22;4247;48.550;8.822;2022-12-18T00:56:44;-10.30;99.90
8420;DHT22;4247;48.550;8.822;2022-12-18T00:59:10;-10.20;99.90
8420;DHT22;4247;48.550;8.822;2022-12-18T01:01:37;-10.20;99.90
8420;DHT22;4247;48.550;8.822;2022-12-18T01:04:06;-10.20;99.90
8420;DHT22;4247;48.550;8.822;2022-12-18T01:06:33;-10.30;99.90
8420;DHT22;4247;48.550;8.822;2022-12-18T01:09:00;-10.20;99.90
8420;DHT22;4247;48.550;8.822;2022-12-18T01:11:26;-10.40;99.90
8420;DHT22;4247;48.550;8.822;2022-12-18T01:13:54;-10.30;99.90
8420;DHT22;4247;48.550;8.822;2022-12-18T01:16:22;-10.30;99.90
8420;DHT22;4247;48.550;8.822;2022-12-18T01:18:52;-10.30;99.90
8420;DHT22;4247;48.550;8.822;2022-12-18T01:21:21;-10.30;99.90
8420;DHT22;4247;48.550;8.822;2022-12-18T01:23:53;-10.30;99.90
8420;DHT22;4247;48.550;8.822;2022-12-18T01:26:21;-10.30;99.90
8420;DHT22;4247;48.550;8.822;2022-12-18T01:28:48;-10.20;99.90
8420;DHT22;4247;48.550;8.822;2022-12-18T01:31:17;-10.20;99.90
8420;DHT22;4247;48.550;8.822;2022-12-18T01:33:46;-10.20;99.90
8420;DHT22;4247;48.550;8.822;2022-12-18T01:36:22;-10.30;99.90
8420;DHT22;4247;48.550;8.822;2022-12-18T01:38:50;-10.20;99.90
8420;DHT22;4247;48.550;8.822;2022-12-18T01:41:23;-10.20;99.90
8420;DHT22;4247;48.550;8.822;2022-12-18T01:43:54;-10.20;99.90
8420;DHT22;4247;48.550;8.822;2022-12-18T01:46:26;-10.10;99.90
8420;DHT22;4247;48.550;8.822;2022-12-18T01:48:56;-10.10;99.90
8420;DHT22;4247;48.550;8.822;2022-12-18T01:51:27;-10.10;99.90
8420;DHT22;4247;48.550;8.822;2022-12-18T01:53:54;-10.10;99.90
8420;DHT22;4247;48.550;8.822;2022-12-18T01:56:21;-10.00;99.90
8420;DHT22;4247;48.550;8.822;2022-12-18T01:58:56;-9.90;99.90
8420;DHT22;4247;48.550;8.822;2022-12-18T02:01:25;-9.90;99.90
8420;DHT22;4247;48.550;8.822;2022-12-18T02:03:53;-10.10;99.90
8420;DHT22;4247;48.550;8.822;2022-12-18T02:06:23;-10.10;99.90
8420;DHT22;4247;48.550;8.822;2022-12-18T02:09:04;-10.10;99.90
8420;DHT22;4247;48.550;8.822;2022-12-18T02:11:44;-10.00;99.90
8420;DHT22;4247;48.550;8.822;2022-12-18T02:14:20;-10.00;99.90
8420;DHT22;4247;48.550;8.822;2022-12-18T02:16:54;-9.90;99.90
8420;DHT22;4247;48.550;8.822;2022-12-18T02:19:42;-10.00;99.90
8420;DHT22;4247;48.550;8.822;2022-12-18T02:22:24;-9.90;99.90
8420;DHT22;4247;48.550;8.822;2022-12-18T02:25:07;-9.80;99.90
8420;DHT22;4247;48.550;8.822;2022-12-18T02:27:39;-9.80;99.90
8420;DHT22;4247;48.550;8.822;2022-12-18T02:30:08;-9.70;99.90
8420;DHT22;4247;48.550;8.822;2022-12-18T02:32:38;-9.70;99.90
8420;DHT22;4247;48.550;8.822;2022-12-18T02:35:13;-9.60;99.90
8420;DHT22;4247;48.550;8.822;2022-12-18T02:37:43;-9.50;99.90
8420;DHT22;4247;48.550;8.822;2022-12-18T02:40:15;-9.50;99.90
8420;DHT22;4247;48.550;8.822;2022-12-18T02:42:45;-9.40;99.90
8420;DHT22;4247;48.550;8.822;2022-12-18T02:45:14;-9.30;99.90
8420;DHT22;4247;48.550;8.822;2022-12-18T02:47:45;-9.30;99.90
8420;DHT22;4247;48.550;8.822;2022-12-18T02:50:18;-9.20;99.90
8420;DHT22;4247;48.550;8.822;2022-12-18T02:52:51;-9.20;99.90
8420;DHT22;4247;48.550;8.822;2022-12-18T02:55:28;-9.20;99.90
8420;DHT22;4247;48.550;8.822;2022-12-18T02:58:04;-9.20;99.90
8420;DHT22;4247;48.550;8.822;2022-12-18T03:00:39;-9.20;99.90
8420;DHT22;4247;48.550;8.822;2022-12-18T03:03:12;-9.20;99.90
8420;DHT22;4247;48.550;8.822;2022-12-18T03:05:45;-9.10;99.90
8420;DHT22;4247;48.550;8.822;2022-12-18T03:08:17;-9.20;99.90
8420;DHT22;4247;48.550;8.822;2022-12-18T03:10:51;-9.10;99.90
8420;DHT22;4247;48.550;8.822;2022-12-18T03:13:26;-9.10;99.90
8420;DHT22;4247;48.550;8.822;2022-12-18T03:15:56;-9.00;99.90
8420;DHT22;4247;48.550;8.822;2022-12-18T03:18:25;-9.00;99.90
8420;DHT22;4247;48.550;8.822;2022-12-18T03:20:56;-8.90;99.90
8420;DHT22;4247;48.550;8.822;2022-12-18T03:23:27;-8.90;99.90
8420;DHT22;4247;48.550;8.822;2022-12-18T03:26:01;-8.80;99.90
8420;DHT22;4247;48.550;8.822;2022-12-18T03:28:34;-8.80;99.90
8420;DHT22;4247;48.550;8.822;2022-12-18T03:31:05;-8.70;99.90
8420;DHT22;4247;48.550;8.822;2022-12-18T03:33:38;-8.70;99.90
8420;DHT22;4247;48.550;8.822;2022-12-18T03:36:07;-8.70;99.90
8420;DHT22;4247;48.550;8.822;2022-12-18T03:38:38;-8.60;99.90
8420;DHT22;4247;48.550;8.822;2022-12-18T03:41:09;-8.50;99.90
8420;DHT22;4247;48.550;8.822;2022-12-18T03:43:46;-8.40;99.90
8420;DHT22;4247;48.550;8.822;2022-12-18T03:46:23;-8.30;99.90
8420;DHT22;4247;48.550;8.822;2022-12-18T03:48:55;-8.20;99.90
8420;DHT22;4247;48.550;8.822;2022-12-18T03:51:30;-8.10;99.90
8420;DHT22;4247;48.550;8.822;2022-12-18T03:54:03;-8.10;99.90
8420;DHT22;4247;48.550;8.822;2022-12-18T03:56:38;-8.10;99.90
8420;DHT22;4247;48.550;8.822;2022-12-18T03:59:10;-8.10;99.90
8420;DHT22;4247;48.550;8.822;2022-12-18T04:01:40;-8.00;99.90
8420;DHT22;4247;48.550;8.822;2022-12-18T04:04:11;-8.00;99.90
8420;DHT22;4247;48.550;8.822;2022-12-18T04:06:41;-8.00;99.90
8420;DHT22;4247;48.550;8.822;2022-12-18T04:09:08;-8.00;99.90
8420;DHT22;4247;48.550;8.822;2022-12-18T04:11:35;-7.80;99.90
8420;DHT22;4247;48.550;8.822;2022-12-18T04:14:02;-7.80;99.90
8420;DHT22;4247;48.550;8.822;2022-12-18T04:16:34;-7.70;99.90
8420;DHT22;4247;48.550;8.822;2022-12-18T04:19:00;-7.60;99.90
8420;DHT22;4247;48.550;8.822;2022-12-18T04:21:27;-7.60;99.90
8420;DHT22;4247;48.550;8.822;2022-12-18T04:23:54;-7.50;99.90
8420;DHT22;4247;48.550;8.822;2022-12-18T04:26:21;-7.30;99.90
8420;DHT22;4247;48.550;8.822;2022-12-18T04:28:48;-7.30;99.90
8420;DHT22;4247;48.550;8.822;2022-12-18T04:31:15;-7.30;99.90
8420;DHT22;4247;48.550;8.822;2022-12-18T04:33:43;-7.20;99.90
8420;DHT22;4247;48.550;8.822;2022-12-18T04:36:10;-7.30;99.90
8420;DHT22;4247;48.550;8.822;2022-12-18T04:38:37;-7.30;99.90
8420;DHT22;4247;48.550;8.822;2022-12-18T04:41:04;-7.30;99.90
8420;DHT22;4247;48.550;8.822;2022-12-18T04:43:31;-7.40;99.90
8420;DHT22;4247;48.550;8.822;2022-12-18T04:46:03;-7.60;99.90
8420;DHT22;4247;48.550;8.822;2022-12-18T04:48:33;-7.80;99.90
8420;DHT22;4247;48.550;8.822;2022-12-18T04:51:02;-8.00;99.90
8420;DHT22;4247;48.550;8.822;2022-12-18T04:53:32;-8.10;99.90
8420;DHT22;4247;48.550;8.822;2022-12-18T04:56:04;-8.20;99.90
8420;DHT22;4247;48.550;8.822;2022-12-18T04:58:31;-8.20;99.90
8420;DHT22;4247;48.550;8.822;2022-12-18T05:00:58;-8.20;99.90
8420;DHT22;4247;48.550;8.822;2022-12-18T05:03:28;-8.40;99.90
8420;DHT22;4247;48.550;8.822;2022-12-18T05:05:54;-8.40;99.90
8420;DHT22;4247;48.550;8.822;2022-12-18T05:08:23;-8.50;99.90
8420;DHT22;4247;48.550;8.822;2022-12-18T05:10:58;-8.50;99.90
8420;DHT22;4247;48.550;8.822;2022-12-18T05:13:25;-8.60;99.90
8420;DHT22;4247;48.550;8.822;2022-12-18T05:15:53;-8.50;99.90
8420;DHT22;4247;48.550;8.822;2022-12-18T05:18:23;-8.50;99.90
8420;DHT22;4247;48.550;8.822;2022-12-18T05:20:50;-8.50;99.90
8420;DHT22;4247;48.550;8.822;2022-12-18T05:23:18;-8.50;99.90
8420;DHT22;4247;48.550;8.822;2022-12-18T05:25:50;-8.50;99.90
8420;DHT22;4247;48.550;8.822;2022-12-18T05:28:17;-8.50;99.90
8420;DHT22;4247;48.550;8.822;2022-12-18T05:30:47;-8.50;99.90
8420;DHT22;4247;48.550;8.822;2022-12-18T05:33:18;-8.50;99.90
8420;DHT22;4247;48.550;8.822;2022-12-18T05:35:50;-8.60;99.90
8420;DHT22;4247;48.550;8.822;2022-12-18T05:38:17;-8.60;99.90
8420;DHT22;4247;48.550;8.822;2022-12-18T05:40:44;-8.60;99.90
8420;DHT22;4247;48.550;8.822;2022-12-18T05:43:13;-8.60;99.90
8420;DHT22;4247;48.550;8.822;2022-12-18T05:45:40;-8.60;99.90
8420;DHT22;4247;48.550;8.822;2022-12-18T05:48:08;-8.50;99.90
8420;DHT22;4247;48.550;8.822;2022-12-18T05:50:38;-8.60;99.90
8420;DHT22;4247;48.550;8.822;2022-12-18T05:53:06;-8.60;99.90
8420;DHT22;4247;48.550;8.822;2022-12-18T05:55:33;-8.70;99.90
8420;DHT22;4247;48.550;8.822;2022-12-18T05:58:00;-8.90;99.90
8420;DHT22;4247;48.550;8.822;2022-12-18T06:00:29;-9.10;99.90
8420;DHT22;4247;48.550;8.822;2022-12-18T06:03:00;-9.20;99.90
8420;DHT22;4247;48.550;8.822;2022-12-18T06:05:27;-9.30;99.90
8420;DHT22;4247;48.550;8.822;2022-12-18T06:07:54;-9.40;99.90
8420;DHT22;4247;48.550;8.822;2022-12-18T06:10:23;-9.50;99.90
8420;DHT22;4247;48.550;8.822;2022-12-18T06:12:50;-9.60;99.90
8420;DHT22;4247;48.550;8.822;2022-12-18T06:15:19;-9.70;99.90
8420;DHT22;4247;48.550;8.822;2022-12-18T06:17:48;-9.70;99.90
8420;DHT22;4247;48.550;8.822;2022-12-18T06:20:15;-9.70;99.90
8420;DHT22;4247;48.550;8.822;2022-12-18T06:22:42;-9.70;99.90
8420;DHT22;4247;48.550;8.822;2022-12-18T06:25:09;-9.70;99.90
8420;DHT22;4247;48.550;8.822;2022-12-18T06:27:36;-9.80;99.90
8420;DHT22;4247;48.550;8.822;2022-12-18T06:30:04;-9.80;99.90
8420;DHT22;4247;48.550;8.822;2022-12-18T06:32:31;-9.90;99.90
8420;DHT22;4247;48.550;8.822;2022-12-18T06:34:59;-9.90;99.90
8420;DHT22;4247;48.550;8.822;2022-12-18T06:37:26;-10.00;99.90
8420;DHT22;4247;48.550;8.822;2022-12-18T06:39:53;-9.90;99.90
8420;DHT22;4247;48.550;8.822;2022-12-18T06:42:22;-9.90;99.90
8420;DHT22;4247;48.550;8.822;2022-12-18T06:44:53;-9.90;99.90
8420;DHT22;4247;48.550;8.822;2022-12-18T06:47:20;-9.90;99.90
8420;DHT22;4247;48.550;8.822;2022-12-18T06:49:47;-9.90;99.90
8420;DHT22;4247;48.550;8.822;2022-12-18T06:52:18;-10.00;99.90
8420;DHT22;4247;48.550;8.822;2022-12-18T06:54:45;-9.90;99.90
8420;DHT22;4247;48.550;8.822;2022-12-18T06:57:12;-9.90;99.90
8420;DHT22;4247;48.550;8.822;2022-12-18T06:59:39;-9.90;99.90
8420;DHT22;4247;48.550;8.822;2022-12-18T07:02:05;-9.90;99.90
8420;DHT22;4247;48.550;8.822;2022-12-18T07:04:32;-9.90;99.90
8420;DHT22;4247;48.550;8.822;2022-12-18T07:07:05;-9.90;99.90
8420;DHT22;4247;48.550;8.822;2022-12-18T07:09:36;-9.90;99.90
8420;DHT22;4247;48.550;8.822;2022-12-18T07:12:03;-9.80;99.90
8420;DHT22;4247;48.550;8.822;2022-12-18T07:14:34;-9.90;99.90
8420;DHT22;4247;48.550;8.822;2022-12-18T07:17:01;-9.90;99.90
8420;DHT22;4247;48.550;8.822;2022-12-18T07:19:28;-9.80;99.90
8420;DHT22;4247;48.550;8.822;2022-12-18T07:21:55;-9.90;99.90
8420;DHT22;4247;48.550;8.822;2022-12-18T07:24:22;-9.80;99.90
8420;DHT22;4247;48.550;8.822;2022-12-18T07:26:50;-9.80;99.90
8420;DHT22;4247;48.550;8.822;2022-12-18T07:29:17;-9.70;99.90
8420;DHT22;4247;48.550;8.822;2022-12-18T07:31:44;-9.70;99.90
8420;DHT22;4247;48.550;8.822;2022-12-18T07:34:11;-9.70;99.90
8420;DHT22;4247;48.550;8.822;2022-12-18T07:36:38;-9.60;99.90
8420;DHT22;4247;48.550;8.822;2022-12-18T07:39:05;-9.50;99.90
8420;DHT22;4247;48.550;8.822;2022-12-18T07:41:32;-9.50;99.90
8420;DHT22;4247;48.550;8.822;2022-12-18T07:44:01;-9.50;99.90
8420;DHT22;4247;48.550;8.822;2022-12-18T07:46:30;-9.40;99.90
8420;DHT22;4247;48.550;8.822;2022-12-18T07:48:57;-9.40;99.90
8420;DHT22;4247;48.550;8.822;2022-12-18T07:51:24;-9.40;99.90
8420;DHT22;4247;48.550;8.822;2022-12-18T07:53:53;-9.40;99.90
8420;DHT22;4247;48.550;8.822;2022-12-18T07:56:20;-9.40;99.90
8420;DHT22;4247;48.550;8.822;2022-12-18T07:58:50;-9.50;99.90
8420;DHT22;4247;48.550;8.822;2022-12-18T08:01:18;-9.40;99.90
8420;DHT22;4247;48.550;8.822;2022-12-18T08:03:45;-9.30;99.90
8420;DHT22;4247;48.550;8.822;2022-12-18T08:06:12;-9.30;99.90
8420;DHT22;4247;48.550;8.822;2022-12-18T08:08:39;-9.30;99.90
8420;DHT22;4247;48.550;8.822;2022-12-18T08:11:07;-9.20;99.90
8420;DHT22;4247;48.550;8.822;2022-12-18T08:13:33;-9.20;99.90
8420;DHT22;4247;48.550;8.822;2022-12-18T08:16:05;-9.10;99.90
8420;DHT22;4247;48.550;8.822;2022-12-18T08:18:37;-9.10;99.90
8420;DHT22;4247;48.550;8.822;2022-12-18T08:21:10;-9.00;99.90
8420;DHT22;4247;48.550;8.822;2022-12-18T08:23:37;-9.00;99.90
8420;DHT22;4247;48.550;8.822;2022-12-18T08:26:07;-8.90;99.90
8420;DHT22;4247;48.550;8.822;2022-12-18T08:28:34;-8.80;99.90
8420;DHT22;4247;48.550;8.822;2022-12-18T08:31:01;-8.80;99.90
8420;DHT22;4247;48.550;8.822;2022-12-18T08:33:29;-8.70;99.90
8420;DHT22;4247;48.550;8.822;2022-12-18T08:35:58;-8.70;99.90
8420;DHT22;4247;48.550;8.822;2022-12-18T08:38:25;-8.60;99.90
8420;DHT22;4247;48.550;8.822;2022-12-18T08:40:58;-8.50;99.90
8420;DHT22;4247;48.550;8.822;2022-12-18T08:43:25;-8.40;99.90
8420;DHT22;4247;48.550;8.822;2022-12-18T08:46:10;-8.30;99.90
8420;DHT22;4247;48.550;8.822;2022-12-18T08:48:37;-8.20;99.90
8420;DHT22;4247;48.550;8.822;2022-12-18T08:51:08;-8.20;99.90
8420;DHT22;4247;48.550;8.822;2022-12-18T08:53:35;-8.10;99.90
8420;DHT22;4247;48.550;8.822;2022-12-18T08:56:05;-8.10;99.90
8420;DHT22;4247;48.550;8.822;2022-12-18T08:58:32;-8.10;99.90
8420;DHT22;4247;48.550;8.822;2022-12-18T09:01:00;-8.00;99.90
8420;DHT22;4247;48.550;8.822;2022-12-18T09:03:27;-8.00;99.90
8420;DHT22;4247;48.550;8.822;2022-12-18T09:05:54;-8.00;99.90
8420;DHT22;4247;48.550;8.822;2022-12-18T09:08:22;-8.00;99.90
8420;DHT22;4247;48.550;8.822;2022-12-18T09:10:50;-7.90;99.90
8420;DHT22;4247;48.550;8.822;2022-12-18T09:13:17;-7.90;99.90
8420;DHT22;4247;48.550;8.822;2022-12-18T09:15:45;-7.80;99.90
8420;DHT22;4247;48.550;8.822;2022-12-18T09:18:18;-7.70;99.90
8420;DHT22;4247;48.550;8.822;2022-12-18T09:20:45;-7.60;99.90
8420;DHT22;4247;48.550;8.822;2022-12-18T09:23:17;-7.60;99.90
8420;DHT22;4247;48.550;8.822;2022-12-18T09:25:48;-7.50;99.90
8420;DHT22;4247;48.550;8.822;2022-12-18T09:28:17;-7.40;99.90
8420;DHT22;4247;48.550;8.822;2022-12-18T09:30:46;-7.40;99.90
8420;DHT22;4247;48.550;8.822;2022-12-18T09:33:14;-7.30;99.90
8420;DHT22;4247;48.550;8.822;2022-12-18T09:35:45;-7.20;99.90
8420;DHT22;4247;48.550;8.822;2022-12-18T09:38:14;-7.30;99.90
8420;DHT22;4247;48.550;8.822;2022-12-18T09:40:43;-7.20;99.90
8420;DHT22;4247;48.550;8.822;2022-12-18T09:43:16;-7.20;99.90
8420;DHT22;4247;48.550;8.822;2022-12-18T09:45:46;-7.10;99.90
8420;DHT22;4247;48.550;8.822;2022-12-18T09:48:19;-7.00;99.90
8420;DHT22;4247;48.550;8.822;2022-12-18T09:50:47;-7.00;99.90
8420;DHT22;4247;48.550;8.822;2022-12-18T09:53:19;-6.90;99.90
8420;DHT22;4247;48.550;8.822;2022-12-18T09:55:47;-6.80;99.90
8420;DHT22;4247;48.550;8.822;2022-12-18T09:58:24;-6.80;99.90
8420;DHT22;4247;48.550;8.822;2022-12-18T10:00:52;-6.70;99.90
8420;DHT22;4247;48.550;8.822;2022-12-18T10:03:19;-6.60;99.90
8420;DHT22;4247;48.550;8.822;2022-12-18T10:05:54;-6.50;99.90
8420;DHT22;4247;48.550;8.822;2022-12-18T10:08:33;-6.40;99.90
8420;DHT22;4247;48.550;8.822;2022-12-18T10:11:18;-6.40;99.90
8420;DHT22;4247;48.550;8.822;2022-12-18T10:13:52;-6.30;99.90
8420;DHT22;4247;48.550;8.822;2022-12-18T10:16:25;-6.30;99.90
8420;DHT22;4247;48.550;8.822;2022-12-18T10:19:03;-6.30;99.90
8420;DHT22;4247;48.550;8.822;2022-12-18T10:21:39;-6.30;99.90
8420;DHT22;4247;48.550;8.822;2022-12-18T10:24:20;-6.30;99.90
8420;DHT22;4247;48.550;8.822;2022-12-18T10:26:52;-6.20;99.90
8420;DHT22;4247;48.550;8.822;2022-12-18T10:29:25;-6.10;99.90
8420;DHT22;4247;48.550;8.822;2022-12-18T10:31:52;-6.10;99.90
8420;DHT22;4247;48.550;8.822;2022-12-18T10:34:19;-6.00;99.90
8420;DHT22;4247;48.550;8.822;2022-12-18T10:36:47;-5.90;99.90
8420;DHT22;4247;48.550;8.822;2022-12-18T10:39:16;-5.90;99.90
8420;DHT22;4247;48.550;8.822;2022-12-18T10:41:46;-5.80;99.90
8420;DHT22;4247;48.550;8.822;2022-12-18T10:44:22;-5.70;99.90
8420;DHT22;4247;48.550;8.822;2022-12-18T10:46:54;-5.60;99.90
8420;DHT22;4247;48.550;8.822;2022-12-18T10:49:26;-5.60;99.90
8420;DHT22;4247;48.550;8.822;2022-12-18T10:52:11;-5.50;99.90
8420;DHT22;4247;48.550;8.822;2022-12-18T10:54:45;-5.50;99.90
8420;DHT22;4247;48.550;8.822;2022-12-18T10:57:15;-5.40;99.90
8420;DHT22;4247;48.550;8.822;2022-12-18T10:59:52;-5.30;99.90
8420;DHT22;4247;48.550;8.822;2022-12-18T11:02:28;-5.40;99.90
8420;DHT22;4247;48.550;8.822;2022-12-18T11:05:08;-5.30;99.90
8420;DHT22;4247;48.550;8.822;2022-12-18T11:07:50;-5.30;99.90
8420;DHT22;4247;48.550;8.822;2022-12-18T11:10:20;-5.20;99.90
8420;DHT22;4247;48.550;8.822;2022-12-18T11:12:48;-5.10;99.90
8420;DHT22;4247;48.550;8.822;2022-12-18T11:15:20;-5.10;99.90
8420;DHT22;4247;48.550;8.822;2022-12-18T11:17:49;-5.00;99.90
8420;DHT22;4247;48.550;8.822;2022-12-18T11:20:25;-5.00;99.90
8420;DHT22;4247;48.550;8.822;2022-12-18T11:22:58;-5.00;99.90
8420;DHT22;4247;48.550;8.822;2022-12-18T11:25:26;-4.90;99.90
8420;DHT22;4247;48.550;8.822;2022-12-18T11:27:56;-4.90;99.90
8420;DHT22;4247;48.550;8.822;2022-12-18T11:30:27;-4.90;99.90
8420;DHT22;4247;48.550;8.822;2022-12-18T11:33:01;-4.80;99.90
8420;DHT22;4247;48.550;8.822;2022-12-18T11:35:37;-4.70;99.90
8420;DHT22;4247;48.550;8.822;2022-12-18T11:38:10;-4.70;99.90
8420;DHT22;4247;48.550;8.822;2022-12-18T11:40:42;-4.60;99.90
8420;DHT22;4247;48.550;8.822;2022-12-18T11:43:14;-4.60;99.90
8420;DHT22;4247;48.550;8.822;2022-12-18T11:45:48;-4.60;99.90
8420;DHT22;4247;48.550;8.822;2022-12-18T11:48:18;-4.60;99.90
8420;DHT22;4247;48.550;8.822;2022-12-18T11:50:50;-4.50;99.90
8420;DHT22;4247;48.550;8.822;2022-12-18T11:53:21;-4.40;99.90
8420;DHT22;4247;48.550;8.822;2022-12-18T11:56:01;-4.40;99.90
8420;DHT22;4247;48.550;8.822;2022-12-18T11:58:42;-4.30;99.90
8420;DHT22;4247;48.550;8.822;2022-12-18T12:01:24;-4.20;99.90
8420;DHT22;4247;48.550;8.822;2022-12-18T12:04:26;-4.10;99.90
8420;DHT22;4247;48.550;8.822;2022-12-18T12:07:04;-4.10;99.90
8420;DHT22;4247;48.550;8.822;2022-12-18T12:09:37;-4.10;99.90
8420;DHT22;4247;48.550;8.822;2022-12-18T12:12:21;-4.00;99.90
8420;DHT22;4247;48.550;8.822;2022-12-18T12:14:59;-4.00;99.90
8420;DHT22;4247;48.550;8.822;2022-12-18T12:17:36;-3.80;99.90
8420;DHT22;4247;48.550;8.822;2022-12-18T12:20:12;-3.80;99.90
8420;DHT22;4247;48.550;8.822;2022-12-18T12:22:49;-3.80;99.90
8420;DHT22;4247;48.550;8.822;2022-12-18T12:25:27;-3.80;99.90
8420;DHT22;4247;48.550;8.822;2022-12-18T12:28:05;-3.70;99.90
8420;DHT22;4247;48.550;8.822;2022-12-18T12:30:43;-3.60;99.90
8420;DHT22;4247;48.550;8.822;2022-12-18T12:33:26;-3.50;99.90
8420;DHT22;4247;48.550;8.822;2022-12-18T12:36:01;-3.50;99.90
8420;DHT22;4247;48.550;8.822;2022-12-18T12:38:34;-3.40;99.90
8420;DHT22;4247;48.550;8.822;2022-12-18T12:41:08;-3.40;99.90
8420;DHT22;4247;48.550;8.822;2022-12-18T12:43:59;-3.30;99.90
8420;DHT22;4247;48.550;8.822;2022-12-18T12:46:26;-3.20;99.90
8420;DHT22;4247;48.550;8.822;2022-12-18T12:48:57;-3.20;99.90
8420;DHT22;4247;48.550;8.822;2022-12-18T12:51:29;-3.20;99.90
8420;DHT22;4247;48.550;8.822;2022-12-18T12:53:58;-3.20;99.90
8420;DHT22;4247;48.550;8.822;2022-12-18T12:56:37;-3.20;99.90
8420;DHT22;4247;48.550;8.822;2022-12-18T12:59:13;-3.10;99.90
8420;DHT22;4247;48.550;8.822;2022-12-18T13:01:51;-3.00;99.90
8420;DHT22;4247;48.550;8.822;2022-12-18T13:04:30;-3.00;99.90
8420;DHT22;4247;48.550;8.822;2022-12-18T13:07:10;-2.90;99.90
8420;DHT22;4247;48.550;8.822;2022-12-18T13:10:22;-2.90;99.90
8420;DHT22;4247;48.550;8.822;2022-12-18T13:12:53;-3.00;99.90
8420;DHT22;4247;48.550;8.822;2022-12-18T13:15:25;-2.90;99.90
8420;DHT22;4247;48.550;8.822;2022-12-18T13:18:16;-3.00;99.90
8420;DHT22;4247;48.550;8.822;2022-12-18T13:20:46;-2.90;99.90
8420;DHT22;4247;48.550;8.822;2022-12-18T13:23:33;-2.90;99.90
8420;DHT22;4247;48.550;8.822;2022-12-18T13:26:31;-3.00;99.90
8420;DHT22;4247;48.550;8.822;2022-12-18T13:28:59;-3.10;99.90
8420;DHT22;4247;48.550;8.822;2022-12-18T13:34:36;-3.10;99.90
8420;DHT22;4247;48.550;8.822;2022-12-18T13:37:47;-3.10;99.90
8420;DHT22;4247;48.550;8.822;2022-12-18T13:43:39;-3.10;99.90
8420;DHT22;4247;48.550;8.822;2022-12-18T13:46:20;-3.10;99.90
8420;DHT22;4247;48.550;8.822;2022-12-18T13:48:55;-3.10;99.90
8420;DHT22;4247;48.550;8.822;2022-12-18T13:51:24;-3.10;99.90
8420;DHT22;4247;48.550;8.822;2022-12-18T13:53:54;-3.10;99.90
8420;DHT22;4247;48.550;8.822;2022-12-18T13:56:23;-3.10;99.90
8420;DHT22;4247;48.550;8.822;2022-12-18T13:59:15;-3.10;99.90
8420;DHT22;4247;48.550;8.822;2022-12-18T14:01:47;-3.10;99.90
8420;DHT22;4247;48.550;8.822;2022-12-18T14:04:23;-3.20;99.90
8420;DHT22;4247;48.550;8.822;2022-12-18T14:06:55;-3.20;99.90
8420;DHT22;4247;48.550;8.822;2022-12-18T14:09:26;-3.20;99.90
8420;DHT22;4247;48.550;8.822;2022-12-18T14:11:53;-3.20;99.90
8420;DHT22;4247;48.550;8.822;2022-12-18T14:14:47;-3.20;99.90
8420;DHT22;4247;48.550;8.822;2022-12-18T14:17:15;-3.20;99.90
8420;DHT22;4247;48.550;8.822;2022-12-18T14:19:43;-3.20;99.90
8420;DHT22;4247;48.550;8.822;2022-12-18T14:22:19;-3.30;99.90
8420;DHT22;4247;48.550;8.822;2022-12-18T14:24:47;-3.20;99.90
8420;DHT22;4247;48.550;8.822;2022-12-18T14:27:22;-3.30;99.90
8420;DHT22;4247;48.550;8.822;2022-12-18T14:29:51;-3.30;99.90
8420;DHT22;4247;48.550;8.822;2022-12-18T14:32:19;-3.30;99.90
8420;DHT22;4247;48.550;8.822;2022-12-18T14:34:51;-3.30;99.90
8420;DHT22;4247;48.550;8.822;2022-12-18T14:37:22;-3.30;99.90
8420;DHT22;4247;48.550;8.822;2022-12-18T14:39:56;-3.30;99.90
8420;DHT22;4247;48.550;8.822;2022-12-18T14:42:24;-3.40;99.90
8420;DHT22;4247;48.550;8.822;2022-12-18T14:48:07;-3.30;99.90
8420;DHT22;4247;48.550;8.822;2022-12-18T14:50:37;-3.40;99.90
8420;DHT22;4247;48.550;8.822;2022-12-18T14:53:04;-3.40;99.90
8420;DHT22;4247;48.550;8.822;2022-12-18T14:55:33;-3.50;99.90
8420;DHT22;4247;48.550;8.822;2022-12-18T14:58:01;-3.50;99.90
8420;DHT22;4247;48.550;8.822;2022-12-18T15:00:28;-3.60;99.90
8420;DHT22;4247;48.550;8.822;2022-12-18T15:02:59;-3.60;99.90
8420;DHT22;4247;48.550;8.822;2022-12-18T15:05:30;-3.70;99.90
8420;DHT22;4247;48.550;8.822;2022-12-18T15:08:02;-3.70;99.90
8420;DHT22;4247;48.550;8.822;2022-12-18T15:10:30;-3.80;99.90
8420;DHT22;4247;48.550;8.822;2022-12-18T15:13:15;-3.80;99.90
8420;DHT22;4247;48.550;8.822;2022-12-18T15:15:48;-3.80;99.90
8420;DHT22;4247;48.550;8.822;2022-12-18T15:18:21;-3.90;99.90
8420;DHT22;4247;48.550;8.822;2022-12-18T15:20:51;-3.90;99.90
8420;DHT22;4247;48.550;8.822;2022-12-18T15:23:24;-3.90;99.90
8420;DHT22;4247;48.550;8.822;2022-12-18T15:26:00;-4.00;99.90
8420;DHT22;4247;48.550;8.822;2022-12-18T15:28:31;-4.00;99.90
8420;DHT22;4247;48.550;8.822;2022-12-18T15:31:04;-4.10;99.90
8420;DHT22;4247;48.550;8.822;2022-12-18T15:33:38;-4.10;99.90
8420;DHT22;4247;48.550;8.822;2022-12-18T15:36:10;-4.20;99.90
8420;DHT22;4247;48.550;8.822;2022-12-18T15:38:37;-4.20;99.90
8420;DHT22;4247;48.550;8.822;2022-12-18T15:41:05;-4.20;99.90
8420;DHT22;4247;48.550;8.822;2022-12-18T15:43:32;-4.20;99.90
8420;DHT22;4247;48.550;8.822;2022-12-18T15:46:02;-4.20;99.90
8420;DHT22;4247;48.550;8.822;2022-12-18T15:48:35;-4.30;99.90
8420;DHT22;4247;48.550;8.822;2022-12-18T15:51:13;-4.40;99.90
8420;DHT22;4247;48.550;8.822;2022-12-18T15:53:41;-4.40;99.90
8420;DHT22;4247;48.550;8.822;2022-12-18T15:56:12;-4.40;99.90
8420;DHT22;4247;48.550;8.822;2022-12-18T15:58:56;-4.40;99.90
8420;DHT22;4247;48.550;8.822;2022-12-18T16:01:26;-4.50;99.90
8420;DHT22;4247;48.550;8.822;2022-12-18T16:03:54;-4.50;99.90
8420;DHT22;4247;48.550;8.822;2022-12-18T16:06:21;-4.50;99.90
8420;DHT22;4247;48.550;8.822;2022-12-18T16:08:50;-4.50;99.90
8420;DHT22;4247;48.550;8.822;2022-12-18T16:11:21;-4.50;99.90
8420;DHT22;4247;48.550;8.822;2022-12-18T16:14:16;-4.50;99.90
8420;DHT22;4247;48.550;8.822;2022-12-18T16:16:43;-4.50;99.90
8420;DHT22;4247;48.550;8.822;2022-12-18T16:19:15;-4.50;99.90
8420;DHT22;4247;48.550;8.822;2022-12-18T16:21:42;-4.50;99.90
8420;DHT22;4247;48.550;8.822;2022-12-18T16:24:15;-4.50;99.90
8420;DHT22;4247;48.550;8.822;2022-12-18T16:26:45;-4.50;99.90
8420;DHT22;4247;48.550;8.822;2022-12-18T16:29:12;-4.40;99.90
8420;DHT22;4247;48.550;8.822;2022-12-18T16:31:39;-4.40;99.90
8420;DHT22;4247;48.550;8.822;2022-12-18T16:34:15;-4.40;99.90
8420;DHT22;4247;48.550;8.822;2022-12-18T16:36:44;-4.30;99.90